Dobrodošli na spletni strani vremenske postaje Senovo. Vse informacije so informativnega značaja, saj vremenska postaja ni del državne mreže meteoroloških postaj. AKTUALNIH OBVESTIL NI.


Posebna pozornost v zvezi z vremenskimi dogajanji ni potrebna.    Posebna pozornost v zvezi z vremenskimi dogajanji ni potrebna.

Pogled proti Armezu več informacij Pogled proti Armezu


Lisca več informacij Lisca


Radar strel več informacij blitzortung!


Radar padavin več informacij rain snow radar


Obiščite še:

Template documentation
and downloads

And another site



Weather Underground, zgodovina - Tekstovno

Dnevni povzetek za Februar 3, 2018 Enote:  Obe    Angleško   Metrično
« Predhodni Dan
Naslednji Dan »
Dnevni Tedenski Mesečni Letni Po meri
  Višja: Nižja: Povprečje:
Temperatura: TemperatureC °F /  -17.8 °C 0.7 °F /  -17.4 °C 1.3 °F /  -17.1 °C
Točka rosišča: DewpointC °F /  -17.8 °C -0.1 °F /  -17.8 °C 0.5 °F /  -17.5 °C
Vlažnost: Humidity % 93 % 94 %
Hitrost vetra: WindSpeedKMH mph /  0 km/h - 1.6 mph /  2.6 km/h
Sunki vetra: WindSpeedGustKMH mph /  0 km/h - -
Veter:- - South
Zračni tlak: PressurehPa in /  0 hPa 1000.9 in /  33890.5 hPa -
Padavine: 9.4 in /  238.76 mm    
Historical Graphs
 
 
Tabelarni podarki za Februar 3, 2018
Čas Temperatura Točka rosišča Zračni tlak Veter Hitrost vetra Sunki vetra Vlažnost Intenziteta padavin (urna)
TemperatureC °F /  -17.8 °C DewpointC °F /  -17.8 °C PressurehPa in /  0 hPa Calm     Humidity % HourlyPrecipMM in /  0 mm
00:02 0.7 °F /  -17.4 °C 0.0 °F /  -17.8 °C 1007.0 in /  34097 hPa North 0.2 mph /  0.3 km/h   95 % 1.5 in /  38.1 mm
00:07 0.7 °F /  -17.4 °C 0.0 °F /  -17.8 °C 1007.0 in /  34097 hPa Calm     95 % 1.3 in /  33.02 mm
00:12 0.7 °F /  -17.4 °C 0.0 °F /  -17.8 °C 1007.0 in /  34097 hPa Calm     95 % 1.5 in /  38.1 mm
00:17 0.7 °F /  -17.4 °C 0.0 °F /  -17.8 °C 1007.0 in /  34097 hPa Calm     95 % 1.5 in /  38.1 mm
00:22 0.7 °F /  -17.4 °C 0.0 °F /  -17.8 °C 1007.0 in /  34097 hPa Calm     95 % 1.5 in /  38.1 mm
00:27 0.7 °F /  -17.4 °C 0.0 °F /  -17.8 °C 1007.0 in /  34097 hPa Calm     95 % 1.5 in /  38.1 mm
00:32 0.7 °F /  -17.4 °C 0.0 °F /  -17.8 °C 1007.0 in /  34097 hPa Calm     95 % 1.8 in /  45.72 mm
00:37 0.7 °F /  -17.4 °C 0.1 °F /  -17.7 °C 1007.0 in /  34097 hPa Calm     96 % 1.8 in /  45.72 mm
00:42 0.7 °F /  -17.4 °C 0.1 °F /  -17.7 °C 1007.0 in /  34097 hPa Calm     96 % 1.5 in /  38.1 mm
00:47 0.7 °F /  -17.4 °C 0.1 °F /  -17.7 °C 1007.0 in /  34097 hPa Calm     96 % 1.5 in /  38.1 mm
00:52 0.7 °F /  -17.4 °C 0.1 °F /  -17.7 °C 1007.0 in /  34097 hPa Calm     96 % 1.3 in /  33.02 mm
00:57 0.7 °F /  -17.4 °C 0.1 °F /  -17.7 °C 1006.0 in /  34063.2 hPa Calm     96 % 1.3 in /  33.02 mm
01:02 0.7 °F /  -17.4 °C 0.1 °F /  -17.7 °C 1006.0 in /  34063.2 hPa Calm     96 % 1.0 in /  25.4 mm
01:07 0.7 °F /  -17.4 °C 0.1 °F /  -17.7 °C 1006.0 in /  34063.2 hPa Calm     96 % 1.0 in /  25.4 mm
01:12 0.7 °F /  -17.4 °C 0.1 °F /  -17.7 °C 1006.0 in /  34063.2 hPa Calm     96 % 1.0 in /  25.4 mm
01:17 0.7 °F /  -17.4 °C 0.1 °F /  -17.7 °C 1006.0 in /  34063.2 hPa Calm     96 % 0.8 in /  20.32 mm
01:22 0.7 °F /  -17.4 °C 0.1 °F /  -17.7 °C 1006.0 in /  34063.2 hPa Calm     96 % 0.8 in /  20.32 mm
01:27 0.7 °F /  -17.4 °C 0.1 °F /  -17.7 °C 1005.0 in /  34029.3 hPa Calm     96 % 0.8 in /  20.32 mm
01:32 0.7 °F /  -17.4 °C 0.1 °F /  -17.7 °C 1005.0 in /  34029.3 hPa Calm     96 % 0.8 in /  20.32 mm
01:37 0.7 °F /  -17.4 °C 0.1 °F /  -17.7 °C 1005.0 in /  34029.3 hPa Calm     96 % 0.8 in /  20.32 mm
01:42 0.7 °F /  -17.4 °C 0.1 °F /  -17.7 °C 1005.0 in /  34029.3 hPa Calm     96 % 0.8 in /  20.32 mm
01:47 0.7 °F /  -17.4 °C 0.1 °F /  -17.7 °C 1005.0 in /  34029.3 hPa South 0.5 mph /  0.8 km/h 3.2 mph /  5.1 km/h 96 % 1.0 in /  25.4 mm
01:52 0.7 °F /  -17.4 °C 0.1 °F /  -17.7 °C 1005.0 in /  34029.3 hPa South 0.6 mph /  1 km/h 3.2 mph /  5.1 km/h 96 % 1.0 in /  25.4 mm
01:57 0.7 °F /  -17.4 °C 0.1 °F /  -17.7 °C 1005.0 in /  34029.3 hPa North 0.2 mph /  0.3 km/h   96 % 1.0 in /  25.4 mm
02:02 0.7 °F /  -17.4 °C 0.1 °F /  -17.7 °C 1005.0 in /  34029.3 hPa Calm     96 % 1.0 in /  25.4 mm
02:07 0.7 °F /  -17.4 °C 0.1 °F /  -17.7 °C 1005.0 in /  34029.3 hPa Calm     96 % 1.0 in /  25.4 mm
02:12 0.7 °F /  -17.4 °C 0.1 °F /  -17.7 °C 1003.9 in /  33992.1 hPa Calm     96 % 1.0 in /  25.4 mm
02:17 0.7 °F /  -17.4 °C 0.1 °F /  -17.7 °C 1003.9 in /  33992.1 hPa Calm     96 % 1.0 in /  25.4 mm
02:22 0.7 °F /  -17.4 °C 0.1 °F /  -17.7 °C 1003.9 in /  33992.1 hPa Calm     96 % 1.0 in /  25.4 mm
02:27 0.7 °F /  -17.4 °C 0.1 °F /  -17.7 °C 1003.9 in /  33992.1 hPa Calm   2.6 mph /  4.2 km/h 96 % 1.0 in /  25.4 mm
02:32 0.7 °F /  -17.4 °C 0.1 °F /  -17.7 °C 1003.9 in /  33992.1 hPa South 0.2 mph /  0.3 km/h 2.6 mph /  4.2 km/h 96 % 0.8 in /  20.32 mm
02:37 0.7 °F /  -17.4 °C 0.1 °F /  -17.7 °C 1003.9 in /  33992.1 hPa South 0.6 mph /  1 km/h 3.2 mph /  5.1 km/h 96 % 0.5 in /  12.7 mm
02:42 0.7 °F /  -17.4 °C 0.1 °F /  -17.7 °C 1005.0 in /  34029.3 hPa South 0.8 mph /  1.3 km/h 3.2 mph /  5.1 km/h 96 % 0.5 in /  12.7 mm
02:47 0.7 °F /  -17.4 °C 0.1 °F /  -17.7 °C 1005.0 in /  34029.3 hPa South 0.8 mph /  1.3 km/h 3.2 mph /  5.1 km/h 96 % 0.5 in /  12.7 mm
02:52 0.7 °F /  -17.4 °C 0.1 °F /  -17.7 °C 1005.0 in /  34029.3 hPa South 0.5 mph /  0.8 km/h 3.2 mph /  5.1 km/h 96 % 0.8 in /  20.32 mm
02:57 0.7 °F /  -17.4 °C 0.1 °F /  -17.7 °C 1005.0 in /  34029.3 hPa Calm     96 % 0.5 in /  12.7 mm
03:02 0.7 °F /  -17.4 °C 0.1 °F /  -17.7 °C 1005.0 in /  34029.3 hPa Calm     96 % 0.8 in /  20.32 mm
03:07 0.7 °F /  -17.4 °C 0.1 °F /  -17.7 °C 1005.0 in /  34029.3 hPa Calm     96 % 0.8 in /  20.32 mm
03:12 0.7 °F /  -17.4 °C 0.1 °F /  -17.7 °C 1005.0 in /  34029.3 hPa Calm     96 % 1.0 in /  25.4 mm
03:17 0.7 °F /  -17.4 °C 0.1 °F /  -17.7 °C 1005.0 in /  34029.3 hPa Calm     96 % 1.0 in /  25.4 mm
03:22 0.7 °F /  -17.4 °C 0.1 °F /  -17.7 °C 1005.0 in /  34029.3 hPa Calm     96 % 1.3 in /  33.02 mm
03:27 0.7 °F /  -17.4 °C 0.1 °F /  -17.7 °C 1005.0 in /  34029.3 hPa Calm     96 % 1.5 in /  38.1 mm
03:32 0.7 °F /  -17.4 °C 0.1 °F /  -17.7 °C 1005.0 in /  34029.3 hPa Calm     96 % 1.5 in /  38.1 mm
03:37 0.7 °F /  -17.4 °C 0.1 °F /  -17.7 °C 1005.0 in /  34029.3 hPa Calm     96 % 1.8 in /  45.72 mm
03:42 0.7 °F /  -17.4 °C 0.1 °F /  -17.7 °C 1005.0 in /  34029.3 hPa Calm     96 % 2.0 in /  50.8 mm
03:47 0.7 °F /  -17.4 °C 0.1 °F /  -17.7 °C 1005.0 in /  34029.3 hPa Calm     96 % 2.0 in /  50.8 mm
03:53 0.7 °F /  -17.4 °C 0.1 °F /  -17.7 °C 1005.0 in /  34029.3 hPa Calm     96 % 2.0 in /  50.8 mm
03:58 0.7 °F /  -17.4 °C 0.1 °F /  -17.7 °C 1005.0 in /  34029.3 hPa Calm     96 % 2.3 in /  58.42 mm
04:03 0.8 °F /  -17.3 °C 0.2 °F /  -17.7 °C 1005.0 in /  34029.3 hPa South 0.5 mph /  0.8 km/h 4.0 mph /  6.4 km/h 96 % 2.3 in /  58.42 mm
04:08 0.8 °F /  -17.3 °C 0.2 °F /  -17.7 °C 1005.0 in /  34029.3 hPa South 1.3 mph /  2.1 km/h 4.0 mph /  6.4 km/h 96 % 2.3 in /  58.42 mm
04:13 0.9 °F /  -17.3 °C 0.3 °F /  -17.6 °C 1005.0 in /  34029.3 hPa South 1.4 mph /  2.3 km/h 5.8 mph /  9.3 km/h 96 % 2.0 in /  50.8 mm
04:18 0.9 °F /  -17.3 °C 0.3 °F /  -17.6 °C 1005.0 in /  34029.3 hPa South 0.5 mph /  0.8 km/h 5.8 mph /  9.3 km/h 96 % 1.8 in /  45.72 mm
04:23 0.8 °F /  -17.3 °C 0.2 °F /  -17.7 °C 1005.0 in /  34029.3 hPa Calm     96 % 1.8 in /  45.72 mm
04:28 0.9 °F /  -17.3 °C 0.3 °F /  -17.6 °C 1005.0 in /  34029.3 hPa Calm     96 % 1.8 in /  45.72 mm
04:33 0.8 °F /  -17.3 °C 0.2 °F /  -17.7 °C 1005.0 in /  34029.3 hPa Calm     96 % 1.3 in /  33.02 mm
04:38 0.9 °F /  -17.3 °C 0.3 °F /  -17.6 °C 1005.0 in /  34029.3 hPa Calm     96 % 1.3 in /  33.02 mm
04:43 0.9 °F /  -17.3 °C 0.3 °F /  -17.6 °C 1005.0 in /  34029.3 hPa South 1.1 mph /  1.8 km/h 6.1 mph /  9.8 km/h 96 % 1.5 in /  38.1 mm
04:48 0.9 °F /  -17.3 °C 0.3 °F /  -17.6 °C 1005.0 in /  34029.3 hPa South 1.3 mph /  2.1 km/h 6.9 mph /  11.1 km/h 96 % 1.5 in /  38.1 mm
04:53 0.9 °F /  -17.3 °C 0.3 °F /  -17.6 °C 1005.0 in /  34029.3 hPa South 0.8 mph /  1.3 km/h 6.9 mph /  11.1 km/h 96 % 1.3 in /  33.02 mm
04:58 1.0 °F /  -17.2 °C 0.4 °F /  -17.6 °C 1003.9 in /  33992.1 hPa South 0.8 mph /  1.3 km/h 4.3 mph /  6.9 km/h 96 % 1.3 in /  33.02 mm
05:03 1.0 °F /  -17.2 °C 0.4 °F /  -17.6 °C 1003.9 in /  33992.1 hPa South 0.2 mph /  0.3 km/h 5.5 mph /  8.9 km/h 96 % 1.0 in /  25.4 mm
05:08 1.0 °F /  -17.2 °C 0.4 °F /  -17.6 °C 1003.9 in /  33992.1 hPa South 1.6 mph /  2.6 km/h 6.4 mph /  10.3 km/h 96 % 1.0 in /  25.4 mm
05:13 1.1 °F /  -17.2 °C 0.6 °F /  -17.4 °C 1003.9 in /  33992.1 hPa South 4.7 mph /  7.6 km/h 14.0 mph /  22.5 km/h 96 % 1.0 in /  25.4 mm
05:18 1.1 °F /  -17.2 °C 0.6 °F /  -17.4 °C 1003.9 in /  33992.1 hPa South 6.8 mph /  10.9 km/h 21.2 mph /  34.1 km/h 96 % 1.0 in /  25.4 mm
05:23 1.3 °F /  -17.1 °C 0.7 °F /  -17.4 °C 1003.9 in /  33992.1 hPa South 8.7 mph /  14 km/h 24.8 mph /  39.9 km/h 96 % 1.0 in /  25.4 mm
05:28 1.3 °F /  -17.1 °C 0.7 °F /  -17.4 °C 1003.9 in /  33992.1 hPa SSE 9.5 mph /  15.3 km/h 24.8 mph /  39.9 km/h 96 % 0.8 in /  20.32 mm
05:33 1.4 °F /  -17 °C 0.8 °F /  -17.3 °C 1003.9 in /  33992.1 hPa SSE 8.8 mph /  14.2 km/h 21.2 mph /  34.1 km/h 96 % 0.8 in /  20.32 mm
05:38 1.4 °F /  -17 °C 0.8 °F /  -17.3 °C 1003.9 in /  33992.1 hPa SSE 8.2 mph /  13.2 km/h 21.2 mph /  34.1 km/h 96 % 0.8 in /  20.32 mm
05:43 1.4 °F /  -17 °C 0.8 °F /  -17.3 °C 1002.9 in /  33958.2 hPa SSE 7.2 mph /  11.6 km/h 16.9 mph /  27.2 km/h 96 % 0.5 in /  12.7 mm
05:48 1.4 °F /  -17 °C 0.8 °F /  -17.3 °C 1002.9 in /  33958.2 hPa SSE 7.7 mph /  12.4 km/h 17.7 mph /  28.5 km/h 96 % 0.3 in /  7.62 mm
05:53 1.5 °F /  -16.9 °C 0.9 °F /  -17.3 °C 1002.9 in /  33958.2 hPa SSE 9.0 mph /  14.5 km/h 17.7 mph /  28.5 km/h 96 % 0.3 in /  7.62 mm
05:58 1.6 °F /  -16.9 °C 1.1 °F /  -17.2 °C 1003.9 in /  33992.1 hPa SE 9.3 mph /  15 km/h 16.6 mph /  26.7 km/h 96 % 0.3 in /  7.62 mm
06:03 1.6 °F /  -16.9 °C 1.1 °F /  -17.2 °C 1003.9 in /  33992.1 hPa SE 9.7 mph /  15.6 km/h 17.7 mph /  28.5 km/h 96 % 0.3 in /  7.62 mm
06:08 1.6 °F /  -16.9 °C 1.1 °F /  -17.2 °C 1003.9 in /  33992.1 hPa SE 10.8 mph /  17.4 km/h 32.0 mph /  51.5 km/h 96 % 0.3 in /  7.62 mm
06:13 1.7 °F /  -16.8 °C 1.1 °F /  -17.2 °C 1002.9 in /  33958.2 hPa SE 11.1 mph /  17.9 km/h 32.0 mph /  51.5 km/h 96 % 0.0 in /  0 mm
06:18 1.7 °F /  -16.8 °C 1.1 °F /  -17.2 °C 1002.9 in /  33958.2 hPa ESE 9.5 mph /  15.3 km/h 14.0 mph /  22.5 km/h 96 % 0.0 in /  0 mm
06:23 1.7 °F /  -16.8 °C 1.1 °F /  -17.2 °C 1002.9 in /  33958.2 hPa ESE 8.7 mph /  14 km/h 16.3 mph /  26.2 km/h 96 % 0.0 in /  0 mm
06:28 1.7 °F /  -16.8 °C 1.1 °F /  -17.2 °C 1002.9 in /  33958.2 hPa SE 10.0 mph /  16.1 km/h 16.3 mph /  26.2 km/h 96 % 0.0 in /  0 mm
06:33 1.6 °F /  -16.9 °C 1.1 °F /  -17.2 °C 1002.9 in /  33958.2 hPa SSE 9.3 mph /  15 km/h 17.2 mph /  27.7 km/h 96 % 0.0 in /  0 mm
06:38 1.6 °F /  -16.9 °C 1.1 °F /  -17.2 °C 1002.9 in /  33958.2 hPa SSE 8.0 mph /  12.9 km/h 17.2 mph /  27.7 km/h 96 % 0.0 in /  0 mm
06:43 1.6 °F /  -16.9 °C 1.1 °F /  -17.2 °C 1002.9 in /  33958.2 hPa SE 8.0 mph /  12.9 km/h 17.2 mph /  27.7 km/h 96 % 0.0 in /  0 mm
06:48 1.6 °F /  -16.9 °C 1.1 °F /  -17.2 °C 1002.9 in /  33958.2 hPa ESE 8.2 mph /  13.2 km/h 17.2 mph /  27.7 km/h 96 % 0.0 in /  0 mm
06:53 1.7 °F /  -16.8 °C 1.1 °F /  -17.2 °C 1002.9 in /  33958.2 hPa East 8.4 mph /  13.5 km/h 16.6 mph /  26.7 km/h 96 % 0.0 in /  0 mm
06:55 1.7 °F /  -16.8 °C 1.1 °F /  -17.2 °C 1002.9 in /  33958.2 hPa East 9.0 mph /  14.5 km/h 19.5 mph /  31.4 km/h 96 % 0.0 in /  0 mm
07:00 1.7 °F /  -16.8 °C 1.1 °F /  -17.2 °C 1002.9 in /  33958.2 hPa ESE 8.5 mph /  13.7 km/h 19.5 mph /  31.4 km/h 96 % 0.0 in /  0 mm
07:05 1.6 °F /  -16.9 °C 1.1 °F /  -17.2 °C 1002.9 in /  33958.2 hPa ESE 7.6 mph /  12.2 km/h 13.0 mph /  20.9 km/h 96 % 0.0 in /  0 mm
07:10 1.6 °F /  -16.9 °C 1.1 °F /  -17.2 °C 1002.9 in /  33958.2 hPa ESE 7.4 mph /  11.9 km/h 13.0 mph /  20.9 km/h 96 % 0.0 in /  0 mm
07:15 1.6 °F /  -16.9 °C 0.9 °F /  -17.3 °C 1002.9 in /  33958.2 hPa SE 7.4 mph /  11.9 km/h 17.2 mph /  27.7 km/h 95 % 0.0 in /  0 mm
07:20 1.6 °F /  -16.9 °C 0.9 °F /  -17.3 °C 1002.9 in /  33958.2 hPa SE 8.2 mph /  13.2 km/h 17.2 mph /  27.7 km/h 95 % 0.0 in /  0 mm
07:25 1.6 °F /  -16.9 °C 0.9 °F /  -17.3 °C 1002.9 in /  33958.2 hPa SE 7.7 mph /  12.4 km/h 16.9 mph /  27.2 km/h 95 % 0.0 in /  0 mm
07:30 1.5 °F /  -16.9 °C 0.8 °F /  -17.3 °C 1001.9 in /  33924.3 hPa SSE 6.8 mph /  10.9 km/h 12.2 mph /  19.6 km/h 95 % 0.0 in /  0 mm
07:35 1.5 °F /  -16.9 °C 0.8 °F /  -17.3 °C 1001.9 in /  33924.3 hPa SSE 6.0 mph /  9.7 km/h 10.5 mph /  16.9 km/h 95 % 0.0 in /  0 mm
07:40 1.5 °F /  -16.9 °C 0.8 °F /  -17.3 °C 1001.9 in /  33924.3 hPa ESE 4.8 mph /  7.7 km/h 13.7 mph /  22 km/h 95 % 0.0 in /  0 mm
07:45 1.6 °F /  -16.9 °C 0.9 °F /  -17.3 °C 1001.9 in /  33924.3 hPa ENE 6.9 mph /  11.1 km/h 15.8 mph /  25.4 km/h 95 % 0.0 in /  0 mm
07:50 1.6 °F /  -16.9 °C 0.9 °F /  -17.3 °C 1001.9 in /  33924.3 hPa ENE 7.7 mph /  12.4 km/h 15.8 mph /  25.4 km/h 95 % 0.0 in /  0 mm
07:55 1.6 °F /  -16.9 °C 0.9 °F /  -17.3 °C 1001.9 in /  33924.3 hPa SE 4.8 mph /  7.7 km/h 13.0 mph /  20.9 km/h 95 % 0.0 in /  0 mm
08:00 1.6 °F /  -16.9 °C 0.7 °F /  -17.4 °C 1002.9 in /  33958.2 hPa SSE 4.2 mph /  6.8 km/h 9.7 mph /  15.6 km/h 94 % 0.0 in /  0 mm
08:05 1.5 °F /  -16.9 °C 0.7 °F /  -17.4 °C 1002.9 in /  33958.2 hPa South 5.3 mph /  8.5 km/h 9.7 mph /  15.6 km/h 94 % 0.0 in /  0 mm
08:10 1.4 °F /  -17 °C 0.6 °F /  -17.4 °C 1002.9 in /  33958.2 hPa South 4.2 mph /  6.8 km/h 6.9 mph /  11.1 km/h 94 % 0.0 in /  0 mm
08:15 1.4 °F /  -17 °C 0.6 °F /  -17.4 °C 1002.9 in /  33958.2 hPa SSW 2.9 mph /  4.7 km/h 4.3 mph /  6.9 km/h 94 % 0.0 in /  0 mm
08:20 1.4 °F /  -17 °C 0.6 °F /  -17.4 °C 1002.9 in /  33958.2 hPa SSW 2.1 mph /  3.4 km/h 4.3 mph /  6.9 km/h 94 % 0.0 in /  0 mm
08:25 1.3 °F /  -17.1 °C 0.4 °F /  -17.6 °C 1002.9 in /  33958.2 hPa WSW 0.6 mph /  1 km/h 3.2 mph /  5.1 km/h 94 % 0.0 in /  0 mm
08:30 1.3 °F /  -17.1 °C 0.4 °F /  -17.6 °C 1001.9 in /  33924.3 hPa Calm     94 % 0.0 in /  0 mm
08:35 1.3 °F /  -17.1 °C 0.4 °F /  -17.6 °C 1001.9 in /  33924.3 hPa Calm     94 % 0.0 in /  0 mm
08:40 1.2 °F /  -17.1 °C 0.3 °F /  -17.6 °C 1001.9 in /  33924.3 hPa SW 1.1 mph /  1.8 km/h 4.7 mph /  7.6 km/h 94 % 0.0 in /  0 mm
08:45 1.2 °F /  -17.1 °C 0.2 °F /  -17.7 °C 1001.9 in /  33924.3 hPa SW 1.1 mph /  1.8 km/h 4.7 mph /  7.6 km/h 93 % 0.0 in /  0 mm
08:50 1.2 °F /  -17.1 °C 0.2 °F /  -17.7 °C 1001.9 in /  33924.3 hPa Calm   2.6 mph /  4.2 km/h 93 % 0.0 in /  0 mm
08:55 1.1 °F /  -17.2 °C 0.1 °F /  -17.7 °C 1001.9 in /  33924.3 hPa Calm   2.6 mph /  4.2 km/h 93 % 0.0 in /  0 mm
09:00 1.1 °F /  -17.2 °C 0.1 °F /  -17.7 °C 1001.9 in /  33924.3 hPa Calm     93 % 0.0 in /  0 mm
09:04 1.1 °F /  -17.2 °C 0.1 °F /  -17.7 °C 1001.9 in /  33924.3 hPa Calm     93 % 0.0 in /  0 mm
09:05 1.1 °F /  -17.2 °C 0.1 °F /  -17.7 °C 1001.9 in /  33924.3 hPa Calm     93 % 0.0 in /  0 mm
09:06 1.1 °F /  -17.2 °C 0.1 °F /  -17.7 °C 1001.9 in /  33924.3 hPa Calm     93 % 0.0 in /  0 mm
09:07 1.1 °F /  -17.2 °C 0.1 °F /  -17.7 °C 1001.9 in /  33924.3 hPa Calm     93 % 0.0 in /  0 mm
09:08 1.1 °F /  -17.2 °C 0.1 °F /  -17.7 °C 1001.9 in /  33924.3 hPa Calm     93 % 0.0 in /  0 mm
09:09 1.1 °F /  -17.2 °C 0.1 °F /  -17.7 °C 1001.9 in /  33924.3 hPa Calm     93 % 0.0 in /  0 mm
09:10 1.1 °F /  -17.2 °C 0.1 °F /  -17.7 °C 1001.9 in /  33924.3 hPa Calm     93 % 0.0 in /  0 mm
09:11 1.1 °F /  -17.2 °C 0.1 °F /  -17.7 °C 1003.9 in /  33992.1 hPa Calm     93 % 0.0 in /  0 mm
09:12 1.1 °F /  -17.2 °C 0.1 °F /  -17.7 °C 1003.9 in /  33992.1 hPa Calm     93 % 0.0 in /  0 mm
09:13 1.1 °F /  -17.2 °C 0.1 °F /  -17.7 °C 1003.9 in /  33992.1 hPa Calm     93 % 0.0 in /  0 mm
09:14 1.1 °F /  -17.2 °C 0.1 °F /  -17.7 °C 1003.9 in /  33992.1 hPa Calm     93 % 0.0 in /  0 mm
09:15 1.1 °F /  -17.2 °C 0.1 °F /  -17.7 °C 1003.9 in /  33992.1 hPa Calm     93 % 0.0 in /  0 mm
09:16 1.1 °F /  -17.2 °C 0.1 °F /  -17.7 °C 1003.9 in /  33992.1 hPa SE 0.2 mph /  0.3 km/h 2.1 mph /  3.4 km/h 93 % 0.0 in /  0 mm
09:17 1.1 °F /  -17.2 °C 0.1 °F /  -17.7 °C 1003.9 in /  33992.1 hPa SE 0.5 mph /  0.8 km/h 2.1 mph /  3.4 km/h 93 % 0.0 in /  0 mm
09:18 1.1 °F /  -17.2 °C 0.1 °F /  -17.7 °C 1003.9 in /  33992.1 hPa SE 0.6 mph /  1 km/h 3.5 mph /  5.6 km/h 93 % 0.0 in /  0 mm
09:19 1.1 °F /  -17.2 °C 0.1 °F /  -17.7 °C 1003.9 in /  33992.1 hPa SE 1.0 mph /  1.6 km/h 3.5 mph /  5.6 km/h 93 % 0.0 in /  0 mm
09:29 1.1 °F /  -17.2 °C 0.1 °F /  -17.7 °C 1003.9 in /  33992.1 hPa SE 1.3 mph /  2.1 km/h 3.5 mph /  5.6 km/h 93 % 0.0 in /  0 mm
09:34 1.1 °F /  -17.2 °C 0.1 °F /  -17.7 °C 1003.9 in /  33992.1 hPa Calm     93 % 0.0 in /  0 mm
09:39 1.1 °F /  -17.2 °C 0.1 °F /  -17.7 °C 1003.9 in /  33992.1 hPa SSW 1.0 mph /  1.6 km/h 3.5 mph /  5.6 km/h 93 % 0.3 in /  7.62 mm
09:44 1.1 °F /  -17.2 °C 0.1 °F /  -17.7 °C 1002.9 in /  33958.2 hPa SSW 1.0 mph /  1.6 km/h 3.5 mph /  5.6 km/h 93 % 0.3 in /  7.62 mm
09:49 1.1 °F /  -17.2 °C 0.1 °F /  -17.7 °C 1002.9 in /  33958.2 hPa Calm   1.4 mph /  2.3 km/h 93 % 0.3 in /  7.62 mm
09:54 1.1 °F /  -17.2 °C 0.1 °F /  -17.7 °C 1001.9 in /  33924.3 hPa Calm     93 % 0.5 in /  12.7 mm
09:59 1.1 °F /  -17.2 °C 0.1 °F /  -17.7 °C 1001.9 in /  33924.3 hPa Calm     93 % 0.5 in /  12.7 mm
10:04 1.1 °F /  -17.2 °C 0.1 °F /  -17.7 °C 1001.9 in /  33924.3 hPa Calm     93 % 0.8 in /  20.32 mm
10:09 1.1 °F /  -17.2 °C 0.1 °F /  -17.7 °C 1001.9 in /  33924.3 hPa South 0.8 mph /  1.3 km/h 4.7 mph /  7.6 km/h 93 % 0.8 in /  20.32 mm
10:15 1.1 °F /  -17.2 °C 0.2 °F /  -17.7 °C 1002.9 in /  33958.2 hPa South 1.9 mph /  3.1 km/h 4.7 mph /  7.6 km/h 94 % 1.0 in /  25.4 mm
10:20 1.1 °F /  -17.2 °C 0.2 °F /  -17.7 °C 1002.9 in /  33958.2 hPa SE 1.9 mph /  3.1 km/h 5.5 mph /  8.9 km/h 94 % 1.0 in /  25.4 mm
10:25 1.1 °F /  -17.2 °C 0.2 °F /  -17.7 °C 1001.9 in /  33924.3 hPa SE 2.7 mph /  4.3 km/h 5.5 mph /  8.9 km/h 94 % 1.0 in /  25.4 mm
10:30 1.1 °F /  -17.2 °C 0.2 °F /  -17.7 °C 1001.9 in /  33924.3 hPa SE 1.8 mph /  2.9 km/h 5.0 mph /  8 km/h 94 % 1.0 in /  25.4 mm
10:35 1.0 °F /  -17.2 °C 0.2 °F /  -17.7 °C 1001.9 in /  33924.3 hPa North 0.2 mph /  0.3 km/h   94 % 1.3 in /  33.02 mm
10:40 1.1 °F /  -17.2 °C 0.2 °F /  -17.7 °C 1002.9 in /  33958.2 hPa Calm     94 % 1.0 in /  25.4 mm
10:45 1.1 °F /  -17.2 °C 0.2 °F /  -17.7 °C 1002.9 in /  33958.2 hPa Calm     94 % 1.0 in /  25.4 mm
10:50 1.1 °F /  -17.2 °C 0.2 °F /  -17.7 °C 1002.9 in /  33958.2 hPa Calm     94 % 1.0 in /  25.4 mm
10:55 1.1 °F /  -17.2 °C 0.2 °F /  -17.7 °C 1002.9 in /  33958.2 hPa SW 2.1 mph /  3.4 km/h 8.7 mph /  14 km/h 94 % 0.8 in /  20.32 mm
11:00 1.2 °F /  -17.1 °C 0.3 °F /  -17.6 °C 1002.9 in /  33958.2 hPa SW 5.3 mph /  8.5 km/h 9.0 mph /  14.5 km/h 94 % 1.0 in /  25.4 mm
11:05 1.2 °F /  -17.1 °C 0.3 °F /  -17.6 °C 1002.9 in /  33958.2 hPa SW 5.6 mph /  9 km/h 9.0 mph /  14.5 km/h 94 % 0.8 in /  20.32 mm
11:10 1.3 °F /  -17.1 °C 0.4 °F /  -17.6 °C 1002.9 in /  33958.2 hPa NW 3.4 mph /  5.5 km/h 6.9 mph /  11.1 km/h 94 % 0.8 in /  20.32 mm
11:15 1.3 °F /  -17.1 °C 0.4 °F /  -17.6 °C 1002.9 in /  33958.2 hPa NNE 1.4 mph /  2.3 km/h 4.3 mph /  6.9 km/h 94 % 0.5 in /  12.7 mm
11:20 1.4 °F /  -17 °C 0.6 °F /  -17.4 °C 1002.9 in /  33958.2 hPa NNW 0.2 mph /  0.3 km/h 2.1 mph /  3.4 km/h 94 % 0.8 in /  20.32 mm
11:25 1.5 °F /  -16.9 °C 0.7 °F /  -17.4 °C 1001.9 in /  33924.3 hPa Calm     94 % 0.8 in /  20.32 mm
11:30 1.6 °F /  -16.9 °C 0.7 °F /  -17.4 °C 1001.9 in /  33924.3 hPa SSW 0.6 mph /  1 km/h 3.5 mph /  5.6 km/h 94 % 0.8 in /  20.32 mm
11:35 1.6 °F /  -16.9 °C 0.7 °F /  -17.4 °C 1001.9 in /  33924.3 hPa SSW 0.6 mph /  1 km/h 3.5 mph /  5.6 km/h 94 % 0.8 in /  20.32 mm
11:40 1.7 °F /  -16.8 °C 0.8 °F /  -17.3 °C 1001.9 in /  33924.3 hPa West 1.0 mph /  1.6 km/h 5.0 mph /  8 km/h 94 % 0.8 in /  20.32 mm
11:45 1.8 °F /  -16.8 °C 0.9 °F /  -17.3 °C 1001.9 in /  33924.3 hPa WSW 1.1 mph /  1.8 km/h 5.0 mph /  8 km/h 94 % 0.8 in /  20.32 mm
11:50 1.9 °F /  -16.7 °C 1.2 °F /  -17.1 °C 1001.9 in /  33924.3 hPa SSW 1.8 mph /  2.9 km/h 6.4 mph /  10.3 km/h 95 % 0.8 in /  20.32 mm
11:55 1.9 °F /  -16.7 °C 1.2 °F /  -17.1 °C 1001.9 in /  33924.3 hPa WSW 3.9 mph /  6.3 km/h 6.9 mph /  11.1 km/h 95 % 0.8 in /  20.32 mm
12:00 2.0 °F /  -16.7 °C 1.1 °F /  -17.2 °C 1001.9 in /  33924.3 hPa WSW 2.7 mph /  4.3 km/h 6.9 mph /  11.1 km/h 94 % 0.8 in /  20.32 mm
12:05 2.2 °F /  -16.6 °C 1.3 °F /  -17.1 °C 1001.9 in /  33924.3 hPa SE 0.3 mph /  0.5 km/h 3.2 mph /  5.1 km/h 94 % 0.8 in /  20.32 mm
12:10 2.4 °F /  -16.4 °C 1.7 °F /  -16.8 °C 1000.9 in /  33890.5 hPa Calm     95 % 0.8 in /  20.32 mm
12:15 2.4 °F /  -16.4 °C 1.7 °F /  -16.8 °C 1000.9 in /  33890.5 hPa SW 0.6 mph /  1 km/h 5.5 mph /  8.9 km/h 95 % 0.8 in /  20.32 mm
12:20 2.4 °F /  -16.4 °C 1.7 °F /  -16.8 °C 1000.9 in /  33890.5 hPa SW 2.9 mph /  4.7 km/h 5.8 mph /  9.3 km/h 95 % 0.5 in /  12.7 mm
12:25 2.4 °F /  -16.4 °C 1.7 °F /  -16.8 °C 1001.9 in /  33924.3 hPa SW 4.8 mph /  7.7 km/h 7.6 mph /  12.2 km/h 95 % 0.3 in /  7.62 mm
12:30 2.3 °F /  -16.5 °C 1.4 °F /  -17 °C 1001.9 in /  33924.3 hPa WSW 5.1 mph /  8.2 km/h 7.6 mph /  12.2 km/h 94 % 0.3 in /  7.62 mm
12:35 2.3 °F /  -16.5 °C 1.4 °F /  -17 °C 1001.9 in /  33924.3 hPa WSW 4.8 mph /  7.7 km/h 8.7 mph /  14 km/h 94 % 0.3 in /  7.62 mm
12:40 2.2 °F /  -16.6 °C 1.3 °F /  -17.1 °C 1001.9 in /  33924.3 hPa SW 4.5 mph /  7.2 km/h 8.7 mph /  14 km/h 94 % 0.3 in /  7.62 mm
12:45 2.1 °F /  -16.6 °C 1.2 °F /  -17.1 °C 1001.9 in /  33924.3 hPa WSW 3.5 mph /  5.6 km/h 6.1 mph /  9.8 km/h 94 % 0.3 in /  7.62 mm
12:50 2.2 °F /  -16.6 °C 1.3 °F /  -17.1 °C 1001.9 in /  33924.3 hPa WSW 2.7 mph /  4.3 km/h 5.5 mph /  8.9 km/h 94 % 0.3 in /  7.62 mm
12:55 2.3 °F /  -16.5 °C 1.4 °F /  -17 °C 1001.9 in /  33924.3 hPa SW 2.6 mph /  4.2 km/h 5.5 mph /  8.9 km/h 94 % 0.0 in /  0 mm
13:00 2.3 °F /  -16.5 °C 1.4 °F /  -17 °C 1001.9 in /  33924.3 hPa SSW 3.2 mph /  5.1 km/h 6.4 mph /  10.3 km/h 94 % 0.0 in /  0 mm
13:05 2.4 °F /  -16.4 °C 1.6 °F /  -16.9 °C 1001.9 in /  33924.3 hPa SSW 2.4 mph /  3.9 km/h 6.4 mph /  10.3 km/h 94 % 0.0 in /  0 mm
13:10 2.7 °F /  -16.3 °C 1.8 °F /  -16.8 °C 1001.9 in /  33924.3 hPa SSW 1.4 mph /  2.3 km/h 4.7 mph /  7.6 km/h 94 % 0.0 in /  0 mm
13:15 2.8 °F /  -16.2 °C 2.1 °F /  -16.6 °C 1001.9 in /  33924.3 hPa SSW 2.1 mph /  3.4 km/h 4.7 mph /  7.6 km/h 95 % 0.0 in /  0 mm
13:20 2.9 °F /  -16.2 °C 2.2 °F /  -16.6 °C 1001.9 in /  33924.3 hPa SSW 1.8 mph /  2.9 km/h 4.3 mph /  6.9 km/h 95 % 0.0 in /  0 mm
13:25 2.8 °F /  -16.2 °C 2.1 °F /  -16.6 °C 1001.9 in /  33924.3 hPa WSW 2.7 mph /  4.3 km/h 5.5 mph /  8.9 km/h 95 % 0.0 in /  0 mm
13:30 2.7 °F /  -16.3 °C 1.8 °F /  -16.8 °C 1001.9 in /  33924.3 hPa WSW 3.5 mph /  5.6 km/h 5.5 mph /  8.9 km/h 94 % 0.0 in /  0 mm
13:35 2.7 °F /  -16.3 °C 1.8 °F /  -16.8 °C 1001.9 in /  33924.3 hPa SW 3.4 mph /  5.5 km/h 4.7 mph /  7.6 km/h 94 % 0.0 in /  0 mm
13:40 2.7 °F /  -16.3 °C 1.8 °F /  -16.8 °C 1001.9 in /  33924.3 hPa SW 3.4 mph /  5.5 km/h 4.7 mph /  7.6 km/h 94 % 0.0 in /  0 mm
13:45 2.7 °F /  -16.3 °C 1.8 °F /  -16.8 °C 1001.9 in /  33924.3 hPa SW 2.4 mph /  3.9 km/h 4.7 mph /  7.6 km/h 94 % 0.0 in /  0 mm
13:50 2.7 °F /  -16.3 °C 1.8 °F /  -16.8 °C 1001.9 in /  33924.3 hPa SSW 0.5 mph /  0.8 km/h 3.2 mph /  5.1 km/h 94 % 0.3 in /  7.62 mm
13:55 2.7 °F /  -16.3 °C 1.8 °F /  -16.8 °C 1000.9 in /  33890.5 hPa Calm     94 % 0.3 in /  7.62 mm
14:00 2.7 °F /  -16.3 °C 1.8 °F /  -16.8 °C 1000.9 in /  33890.5 hPa Calm     94 % 0.3 in /  7.62 mm
14:05 2.6 °F /  -16.3 °C 1.7 °F /  -16.8 °C 1000.9 in /  33890.5 hPa Calm     94 % 0.3 in /  7.62 mm
14:10 2.7 °F /  -16.3 °C 1.8 °F /  -16.8 °C 1000.9 in /  33890.5 hPa Calm     94 % 0.3 in /  7.62 mm
14:15 2.6 °F /  -16.3 °C 1.7 °F /  -16.8 °C 1000.9 in /  33890.5 hPa Calm     94 % 0.3 in /  7.62 mm
14:20 2.6 °F /  -16.3 °C 1.7 °F /  -16.8 °C 1000.9 in /  33890.5 hPa SW 0.5 mph /  0.8 km/h 4.3 mph /  6.9 km/h 94 % 0.3 in /  7.62 mm
14:25 2.6 °F /  -16.3 °C 1.7 °F /  -16.8 °C 1000.9 in /  33890.5 hPa SW 2.3 mph /  3.7 km/h 4.7 mph /  7.6 km/h 94 % 0.3 in /  7.62 mm
14:30 2.6 °F /  -16.3 °C 1.7 °F /  -16.8 °C 1000.9 in /  33890.5 hPa SW 2.9 mph /  4.7 km/h 4.7 mph /  7.6 km/h 94 % 0.3 in /  7.62 mm
14:35 2.6 °F /  -16.3 °C 1.7 °F /  -16.8 °C 1000.9 in /  33890.5 hPa SW 2.4 mph /  3.9 km/h 4.3 mph /  6.9 km/h 94 % 0.3 in /  7.62 mm
14:40 2.5 °F /  -16.4 °C 1.6 °F /  -16.9 °C 1000.9 in /  33890.5 hPa SW 2.9 mph /  4.7 km/h 4.7 mph /  7.6 km/h 94 % 0.3 in /  7.62 mm
14:45 2.4 °F /  -16.4 °C 1.4 °F /  -17 °C 1000.9 in /  33890.5 hPa SW 3.1 mph /  5 km/h 5.5 mph /  8.9 km/h 93 % 0.3 in /  7.62 mm
14:50 2.4 °F /  -16.4 °C 1.4 °F /  -17 °C 1000.9 in /  33890.5 hPa SW 3.2 mph /  5.1 km/h 5.5 mph /  8.9 km/h 93 % 0.3 in /  7.62 mm
14:55 2.4 °F /  -16.4 °C 1.4 °F /  -17 °C 1000.9 in /  33890.5 hPa SSW 3.2 mph /  5.1 km/h 4.3 mph /  6.9 km/h 93 % 0.3 in /  7.62 mm
15:00 2.4 °F /  -16.4 °C 1.4 °F /  -17 °C 1000.9 in /  33890.5 hPa South 1.9 mph /  3.1 km/h 4.3 mph /  6.9 km/h 93 % 0.3 in /  7.62 mm
15:05 2.3 °F /  -16.5 °C 1.3 °F /  -17.1 °C 1000.9 in /  33890.5 hPa SW 1.3 mph /  2.1 km/h 4.3 mph /  6.9 km/h 93 % 0.0 in /  0 mm
15:10 2.3 °F /  -16.5 °C 1.3 °F /  -17.1 °C 1000.9 in /  33890.5 hPa SW 3.2 mph /  5.1 km/h 6.1 mph /  9.8 km/h 93 % 0.0 in /  0 mm
15:15 2.1 °F /  -16.6 °C 1.1 °F /  -17.2 °C 1000.9 in /  33890.5 hPa WSW 4.5 mph /  7.2 km/h 6.1 mph /  9.8 km/h 93 % 0.0 in /  0 mm
15:20 2.0 °F /  -16.7 °C 1.0 °F /  -17.2 °C 1000.9 in /  33890.5 hPa SW 4.2 mph /  6.8 km/h 6.1 mph /  9.8 km/h 93 % 0.0 in /  0 mm
15:25 2.0 °F /  -16.7 °C 1.0 °F /  -17.2 °C 1000.9 in /  33890.5 hPa SW 4.0 mph /  6.4 km/h 5.8 mph /  9.3 km/h 93 % 0.0 in /  0 mm
15:30 2.0 °F /  -16.7 °C 1.0 °F /  -17.2 °C 1000.9 in /  33890.5 hPa SW 3.1 mph /  5 km/h 5.8 mph /  9.3 km/h 93 % 0.0 in /  0 mm
15:35 2.1 °F /  -16.6 °C 1.1 °F /  -17.2 °C 1000.9 in /  33890.5 hPa WSW 1.9 mph /  3.1 km/h 4.3 mph /  6.9 km/h 93 % 0.0 in /  0 mm
15:40 2.1 °F /  -16.6 °C 1.1 °F /  -17.2 °C 1000.9 in /  33890.5 hPa WSW 1.6 mph /  2.6 km/h 4.3 mph /  6.9 km/h 93 % 0.0 in /  0 mm
15:45 2.2 °F /  -16.6 °C 1.2 °F /  -17.1 °C 1000.9 in /  33890.5 hPa SW 2.6 mph /  4.2 km/h 4.7 mph /  7.6 km/h 93 % 0.0 in /  0 mm
15:50 2.1 °F /  -16.6 °C 1.1 °F /  -17.2 °C 1000.9 in /  33890.5 hPa WSW 3.5 mph /  5.6 km/h 5.0 mph /  8 km/h 93 % 0.0 in /  0 mm
15:55 2.2 °F /  -16.6 °C 1.2 °F /  -17.1 °C 1000.9 in /  33890.5 hPa WSW 2.3 mph /  3.7 km/h 5.0 mph /  8 km/h 93 % 0.0 in /  0 mm
16:00 2.1 °F /  -16.6 °C 1.1 °F /  -17.2 °C 1000.9 in /  33890.5 hPa WSW 1.8 mph /  2.9 km/h 4.7 mph /  7.6 km/h 93 % 0.0 in /  0 mm
16:05 2.1 °F /  -16.6 °C 1.1 °F /  -17.2 °C 1000.9 in /  33890.5 hPa WSW 1.3 mph /  2.1 km/h 4.7 mph /  7.6 km/h 93 % 0.0 in /  0 mm
16:10 2.1 °F /  -16.6 °C 1.1 °F /  -17.2 °C 1000.9 in /  33890.5 hPa SW 0.2 mph /  0.3 km/h 3.5 mph /  5.6 km/h 93 % 0.0 in /  0 mm
16:15 2.0 °F /  -16.7 °C 1.0 °F /  -17.2 °C 1000.9 in /  33890.5 hPa SW 1.6 mph /  2.6 km/h 4.7 mph /  7.6 km/h 93 % 0.0 in /  0 mm
16:20 2.0 °F /  -16.7 °C 1.0 °F /  -17.2 °C 1000.9 in /  33890.5 hPa SW 2.3 mph /  3.7 km/h 4.7 mph /  7.6 km/h 93 % 0.0 in /  0 mm
16:25 1.9 °F /  -16.7 °C 0.9 °F /  -17.3 °C 1000.9 in /  33890.5 hPa SW 0.6 mph /  1 km/h 2.6 mph /  4.2 km/h 93 % 0.0 in /  0 mm
16:30 1.9 °F /  -16.7 °C 0.9 °F /  -17.3 °C 1000.9 in /  33890.5 hPa Calm     93 % 0.0 in /  0 mm
16:35 1.9 °F /  -16.7 °C 0.9 °F /  -17.3 °C 1000.9 in /  33890.5 hPa Calm     93 % 0.0 in /  0 mm
16:40 1.8 °F /  -16.8 °C 0.8 °F /  -17.3 °C 1001.9 in /  33924.3 hPa Calm     93 % 0.0 in /  0 mm
16:45 1.7 °F /  -16.8 °C 0.7 °F /  -17.4 °C 1001.9 in /  33924.3 hPa Calm     93 % 0.0 in /  0 mm
16:50 1.7 °F /  -16.8 °C 0.7 °F /  -17.4 °C 1001.9 in /  33924.3 hPa Calm     93 % 0.0 in /  0 mm
16:55 1.7 °F /  -16.8 °C 0.7 °F /  -17.4 °C 1001.9 in /  33924.3 hPa Calm     93 % 0.0 in /  0 mm
17:00 1.6 °F /  -16.9 °C 0.6 °F /  -17.4 °C 1001.9 in /  33924.3 hPa Calm     93 % 0.0 in /  0 mm
17:05 1.6 °F /  -16.9 °C 0.6 °F /  -17.4 °C 1001.9 in /  33924.3 hPa Calm     93 % 0.3 in /  7.62 mm
17:10 1.5 °F /  -16.9 °C 0.5 °F /  -17.5 °C 1002.9 in /  33958.2 hPa Calm     93 % 0.3 in /  7.62 mm
17:15 1.4 °F /  -17 °C 0.4 °F /  -17.6 °C 1002.9 in /  33958.2 hPa Calm     93 % 0.3 in /  7.62 mm
17:20 1.4 °F /  -17 °C 0.4 °F /  -17.6 °C 1002.9 in /  33958.2 hPa Calm     93 % 0.3 in /  7.62 mm
17:25 1.3 °F /  -17.1 °C 0.3 °F /  -17.6 °C 1003.9 in /  33992.1 hPa Calm     93 % 0.3 in /  7.62 mm
17:30 1.3 °F /  -17.1 °C 0.3 °F /  -17.6 °C 1003.9 in /  33992.1 hPa Calm     93 % 0.3 in /  7.62 mm
17:35 1.2 °F /  -17.1 °C 0.2 °F /  -17.7 °C 1003.9 in /  33992.1 hPa Calm     93 % 0.3 in /  7.62 mm
17:40 1.2 °F /  -17.1 °C 0.2 °F /  -17.7 °C 1001.9 in /  33924.3 hPa Calm     93 % 0.3 in /  7.62 mm
17:45 1.1 °F /  -17.2 °C 0.1 °F /  -17.7 °C 1001.9 in /  33924.3 hPa Calm     93 % 0.3 in /  7.62 mm
17:50 1.1 °F /  -17.2 °C 0.1 °F /  -17.7 °C 1001.9 in /  33924.3 hPa Calm     93 % 0.3 in /  7.62 mm
17:55 1.1 °F /  -17.2 °C 0.1 °F /  -17.7 °C 1002.9 in /  33958.2 hPa Calm     93 % 0.3 in /  7.62 mm
18:00 1.1 °F /  -17.2 °C 0.1 °F /  -17.7 °C 1002.9 in /  33958.2 hPa Calm     93 % 0.3 in /  7.62 mm
18:05 1.1 °F /  -17.2 °C 0.1 °F /  -17.7 °C 1002.9 in /  33958.2 hPa Calm     93 % 0.3 in /  7.62 mm
18:10 1.0 °F /  -17.2 °C 0.0 °F /  -17.8 °C 1002.9 in /  33958.2 hPa Calm     93 % 0.3 in /  7.62 mm
18:15 1.0 °F /  -17.2 °C 0.0 °F /  -17.8 °C 1002.9 in /  33958.2 hPa Calm     93 % 0.3 in /  7.62 mm
18:20 1.0 °F /  -17.2 °C 0.0 °F /  -17.8 °C 1002.9 in /  33958.2 hPa Calm     93 % 0.3 in /  7.62 mm
18:25 1.0 °F /  -17.2 °C 0.0 °F /  -17.8 °C 1003.9 in /  33992.1 hPa Calm     93 % 0.3 in /  7.62 mm
18:30 1.0 °F /  -17.2 °C 0.0 °F /  -17.8 °C 1003.9 in /  33992.1 hPa Calm     93 % 0.3 in /  7.62 mm
18:35 1.0 °F /  -17.2 °C 0.0 °F /  -17.8 °C 1003.9 in /  33992.1 hPa Calm     93 % 0.3 in /  7.62 mm
18:40 1.0 °F /  -17.2 °C 0.0 °F /  -17.8 °C 1003.9 in /  33992.1 hPa Calm     93 % 0.3 in /  7.62 mm
18:45 1.0 °F /  -17.2 °C 0.0 °F /  -17.8 °C 1003.9 in /  33992.1 hPa Calm     93 % 0.3 in /  7.62 mm
18:50 1.0 °F /  -17.2 °C 0.0 °F /  -17.8 °C 1003.9 in /  33992.1 hPa Calm     93 % 0.3 in /  7.62 mm
18:55 1.0 °F /  -17.2 °C 0.2 °F /  -17.7 °C 1003.9 in /  33992.1 hPa Calm     94 % 0.3 in /  7.62 mm
19:00 1.0 °F /  -17.2 °C 0.2 °F /  -17.7 °C 1003.9 in /  33992.1 hPa Calm     94 % 0.0 in /  0 mm
19:05 0.9 °F /  -17.3 °C 0.1 °F /  -17.7 °C 1003.9 in /  33992.1 hPa Calm     94 % 0.0 in /  0 mm
19:10 0.9 °F /  -17.3 °C 0.1 °F /  -17.7 °C 1003.9 in /  33992.1 hPa Calm     94 % 0.0 in /  0 mm
19:15 0.9 °F /  -17.3 °C 0.1 °F /  -17.7 °C 1003.9 in /  33992.1 hPa Calm     94 % 0.0 in /  0 mm
19:20 0.9 °F /  -17.3 °C 0.1 °F /  -17.7 °C 1003.9 in /  33992.1 hPa Calm     94 % 0.0 in /  0 mm
19:25 0.9 °F /  -17.3 °C 0.1 °F /  -17.7 °C 1005.0 in /  34029.3 hPa Calm     94 % 0.0 in /  0 mm
19:30 0.9 °F /  -17.3 °C 0.1 °F /  -17.7 °C 1005.0 in /  34029.3 hPa Calm     94 % 0.0 in /  0 mm
19:35 0.9 °F /  -17.3 °C 0.1 °F /  -17.7 °C 1005.0 in /  34029.3 hPa Calm     94 % 0.0 in /  0 mm
19:40 0.9 °F /  -17.3 °C 0.1 °F /  -17.7 °C 1005.0 in /  34029.3 hPa Calm     94 % 0.0 in /  0 mm
19:45 0.9 °F /  -17.3 °C 0.1 °F /  -17.7 °C 1005.0 in /  34029.3 hPa Calm     94 % 0.0 in /  0 mm
19:50 0.9 °F /  -17.3 °C 0.1 °F /  -17.7 °C 1005.0 in /  34029.3 hPa Calm     94 % 0.0 in /  0 mm
19:55 0.8 °F /  -17.3 °C -0.1 °F /  -17.8 °C 1005.0 in /  34029.3 hPa Calm     94 % 0.3 in /  7.62 mm
20:00 0.8 °F /  -17.3 °C -0.1 °F /  -17.8 °C 1005.0 in /  34029.3 hPa Calm     94 % 0.3 in /  7.62 mm
20:05 0.8 °F /  -17.3 °C -0.1 °F /  -17.8 °C 1005.0 in /  34029.3 hPa Calm     94 % 0.3 in /  7.62 mm
20:10 0.8 °F /  -17.3 °C 0.1 °F /  -17.7 °C 1005.0 in /  34029.3 hPa Calm     95 % 0.3 in /  7.62 mm
20:15 0.8 °F /  -17.3 °C 0.1 °F /  -17.7 °C 1005.0 in /  34029.3 hPa Calm     95 % 0.3 in /  7.62 mm
20:20 0.7 °F /  -17.4 °C 0.0 °F /  -17.8 °C 1005.0 in /  34029.3 hPa Calm     95 % 0.3 in /  7.62 mm
20:25 0.7 °F /  -17.4 °C 0.0 °F /  -17.8 °C 1005.0 in /  34029.3 hPa Calm     95 % 0.3 in /  7.62 mm
20:30 0.7 °F /  -17.4 °C 0.0 °F /  -17.8 °C 1005.0 in /  34029.3 hPa Calm     95 % 0.3 in /  7.62 mm
20:35 0.7 °F /  -17.4 °C 0.0 °F /  -17.8 °C 1005.0 in /  34029.3 hPa Calm     95 % 0.3 in /  7.62 mm
20:40 0.7 °F /  -17.4 °C 0.0 °F /  -17.8 °C 1005.0 in /  34029.3 hPa SW 0.2 mph /  0.3 km/h 4.3 mph /  6.9 km/h 95 % 0.3 in /  7.62 mm
20:45 0.7 °F /  -17.4 °C 0.0 °F /  -17.8 °C 1005.0 in /  34029.3 hPa SW 1.4 mph /  2.3 km/h 4.3 mph /  6.9 km/h 95 % 0.3 in /  7.62 mm
20:50 0.7 °F /  -17.4 °C 0.0 °F /  -17.8 °C 1005.0 in /  34029.3 hPa SW 1.3 mph /  2.1 km/h 4.3 mph /  6.9 km/h 95 % 0.3 in /  7.62 mm
20:55 0.7 °F /  -17.4 °C 0.0 °F /  -17.8 °C 1006.0 in /  34063.2 hPa Calm     95 % 0.0 in /  0 mm
21:00 0.7 °F /  -17.4 °C 0.0 °F /  -17.8 °C 1006.0 in /  34063.2 hPa Calm     95 % 0.0 in /  0 mm
21:05 0.7 °F /  -17.4 °C 0.0 °F /  -17.8 °C 1006.0 in /  34063.2 hPa Calm     95 % 0.0 in /  0 mm
21:10 0.7 °F /  -17.4 °C 0.0 °F /  -17.8 °C 1005.0 in /  34029.3 hPa Calm     95 % 0.0 in /  0 mm
21:15 0.7 °F /  -17.4 °C 0.0 °F /  -17.8 °C 1005.0 in /  34029.3 hPa Calm     95 % 0.0 in /  0 mm
21:20 0.7 °F /  -17.4 °C 0.0 °F /  -17.8 °C 1005.0 in /  34029.3 hPa Calm     95 % 0.0 in /  0 mm
21:25 0.7 °F /  -17.4 °C 0.0 °F /  -17.8 °C 1005.0 in /  34029.3 hPa Calm     95 % 0.0 in /  0 mm
21:30 0.7 °F /  -17.4 °C 0.0 °F /  -17.8 °C 1005.0 in /  34029.3 hPa Calm     95 % 0.0 in /  0 mm
21:35 0.7 °F /  -17.4 °C 0.0 °F /  -17.8 °C 1005.0 in /  34029.3 hPa Calm     95 % 0.0 in /  0 mm
21:40 0.7 °F /  -17.4 °C 0.0 °F /  -17.8 °C 1003.9 in /  33992.1 hPa Calm     95 % 0.0 in /  0 mm
21:45 0.7 °F /  -17.4 °C 0.0 °F /  -17.8 °C 1003.9 in /  33992.1 hPa Calm     95 % 0.0 in /  0 mm
21:50 0.7 °F /  -17.4 °C 0.0 °F /  -17.8 °C 1003.9 in /  33992.1 hPa Calm     95 % 0.0 in /  0 mm
21:55 0.7 °F /  -17.4 °C 0.0 °F /  -17.8 °C 1003.9 in /  33992.1 hPa Calm     95 % 0.0 in /  0 mm
22:00 0.7 °F /  -17.4 °C 0.0 °F /  -17.8 °C 1003.9 in /  33992.1 hPa Calm     95 % 0.0 in /  0 mm
22:05 0.7 °F /  -17.4 °C 0.0 °F /  -17.8 °C 1003.9 in /  33992.1 hPa Calm     95 % 0.0 in /  0 mm
22:10 0.7 °F /  -17.4 °C 0.0 °F /  -17.8 °C 1005.0 in /  34029.3 hPa Calm     95 % 0.0 in /  0 mm
22:15 0.7 °F /  -17.4 °C 0.0 °F /  -17.8 °C 1005.0 in /  34029.3 hPa Calm     95 % 0.0 in /  0 mm
22:20 0.7 °F /  -17.4 °C 0.0 °F /  -17.8 °C 1005.0 in /  34029.3 hPa Calm     95 % 0.0 in /  0 mm
22:25 0.7 °F /  -17.4 °C 0.0 °F /  -17.8 °C 1005.0 in /  34029.3 hPa Calm     95 % 0.0 in /  0 mm
22:30 0.7 °F /  -17.4 °C 0.0 °F /  -17.8 °C 1005.0 in /  34029.3 hPa Calm     95 % 0.0 in /  0 mm
22:35 0.8 °F /  -17.3 °C 0.2 °F /  -17.7 °C 1005.0 in /  34029.3 hPa Calm     96 % 0.0 in /  0 mm
22:40 0.8 °F /  -17.3 °C 0.2 °F /  -17.7 °C 1006.0 in /  34063.2 hPa Calm     96 % 0.0 in /  0 mm
22:45 0.7 °F /  -17.4 °C 0.1 °F /  -17.7 °C 1006.0 in /  34063.2 hPa Calm     96 % 0.0 in /  0 mm
22:50 0.7 °F /  -17.4 °C 0.1 °F /  -17.7 °C 1006.0 in /  34063.2 hPa Calm     96 % 0.0 in /  0 mm
22:55 0.7 °F /  -17.4 °C 0.1 °F /  -17.7 °C 1006.0 in /  34063.2 hPa Calm     96 % 0.0 in /  0 mm
23:01 0.7 °F /  -17.4 °C 0.1 °F /  -17.7 °C 1006.0 in /  34063.2 hPa Calm     96 % 0.0 in /  0 mm
23:06 0.7 °F /  -17.4 °C 0.1 °F /  -17.7 °C 1006.0 in /  34063.2 hPa Calm     96 % 0.0 in /  0 mm
23:11 0.7 °F /  -17.4 °C 0.1 °F /  -17.7 °C 1006.0 in /  34063.2 hPa Calm     96 % 0.0 in /  0 mm
23:16 0.7 °F /  -17.4 °C 0.1 °F /  -17.7 °C 1006.0 in /  34063.2 hPa Calm     96 % 0.0 in /  0 mm
23:21 0.7 °F /  -17.4 °C 0.1 °F /  -17.7 °C 1006.0 in /  34063.2 hPa Calm     96 % 0.0 in /  0 mm
23:26 0.7 °F /  -17.4 °C 0.1 °F /  -17.7 °C 1006.0 in /  34063.2 hPa Calm     96 % 0.0 in /  0 mm
23:31 0.7 °F /  -17.4 °C 0.1 °F /  -17.7 °C 1006.0 in /  34063.2 hPa Calm     96 % 0.0 in /  0 mm
23:36 0.7 °F /  -17.4 °C 0.1 °F /  -17.7 °C 1006.0 in /  34063.2 hPa Calm     96 % 0.0 in /  0 mm
23:41 0.7 °F /  -17.4 °C 0.1 °F /  -17.7 °C 1007.0 in /  34097 hPa Calm     96 % 0.0 in /  0 mm
23:46 0.7 °F /  -17.4 °C 0.1 °F /  -17.7 °C 1007.0 in /  34097 hPa Calm     96 % 0.0 in /  0 mm
23:51 0.7 °F /  -17.4 °C 0.1 °F /  -17.7 °C 1007.0 in /  34097 hPa Calm     96 % 0.0 in /  0 mm
23:56 0.7 °F /  -17.4 °C 0.1 °F /  -17.7 °C 1007.0 in /  34097 hPa Calm     96 % 0.0 in /  0 mm
Vremenska postaja Senovo
Podatki zbrani iz Weather Underground - 3 mb

Script developed by  Jim McMurry - jmcmurry@mwt.net Adapted for the template by  Wim van der Kuil - Leuven-Template.eu

Vremenski podatki so objavljeni na:

European Weather Network

WeatherCloud

Weather Underground

AWEKAS

HAMweather, WeatherForYou, PWS Weather

MapView

Geostik

Slovenia weather network

Oprema, ki se uporablja:

Vremenski program
Cumulus

Vremenski server
Asus

Cumulus

Asus